Latest Weather Observations for Cape Leeuwin

IDW60801

Issued at 11:03 pm WST Tuesday 17 January 2017 (issued every 30 minutes, with the page automatically refreshed every 10 minutes)

About weather observations | Map of weather stations | Latest weather observations for WA | Other Formats
Station Details ID: 009518 Name: CAPE LEEUWIN Lat: -34.37 Lon: 115.14 Height: 13.0 m
Data from the previous 72 hours. | See also: Recent months at Cape Leeuwin
Date/Time
WST
Temp
°C
App
Temp
°C
Dew
Point
°C
Rel
Hum
%
Delta-T
°C
Wind Press
QNH
hPa
Press
MSL
hPa
Rain since
9am
mm
Dir  Spd
km/h
Gust
km/h
Spd
kts
Gust
kts
17/11:00pm 17.5 9.3 11.6 68 3.2 ESE 46 57 25 31 1015.9 1015.8 0.0
17/10:30pm 17.8 9.4 12.2 70 3.1 ESE 48 56 26 30 1016.3 1016.2 0.0
17/10:00pm 17.6 9.4 11.7 68 3.2 ESE 46 59 25 32 1016.6 1016.5 0.0
17/09:30pm 17.9 10.6 12.9 72 2.8 ESE 43 54 23 29 1016.7 1016.6 0.0
17/09:00pm 17.6 9.8 11.7 68 3.2 SE 44 57 24 31 1016.8 1016.7 0.0
17/08:30pm 17.7 9.9 11.2 65 3.5 SE 43 54 23 29 1016.8 1016.7 0.0
17/08:00pm 17.6 9.6 10.3 62 3.9 SE 43 52 23 28 1016.6 1016.5 0.0
17/07:30pm 17.6 9.8 9.8 60 4.1 SE 41 54 22 29 1016.5 1016.4 0.0
17/07:00pm 17.8 10.0 9.6 58 4.3 SE 41 50 22 27 1016.4 1016.3 0.0
17/06:30pm 18.2 13.2 18.0 99 0.1 SE 41 54 22 29 1016.2 1016.1 0.0
17/06:00pm 18.7 14.0 18.7 100 0.0 SE 41 52 22 28 1016.2 1016.1 0.0
17/05:30pm 18.9 14.3 18.9 100 0.0 SE 41 54 22 29 1016.2 1016.1 0.0
17/05:00pm 19.3 14.9 19.3 100 0.0 SE 41 52 22 28 1016.2 1016.1 0.0
17/04:30pm 19.7 15.5 19.7 100 0.0 SE 41 50 22 27 1016.3 1016.2 0.0
17/04:00pm 20.0 16.3 20.0 100 0.0 SSE 39 46 21 25 1016.5 1016.4 0.0
17/03:30pm 20.8 18.3 20.8 100 0.0 SE 35 44 19 24 1016.7 1016.6 0.0
17/03:00pm 21.2 18.7 20.9 98 0.2 SE 35 44 19 24 1016.9 1016.8 0.0
17/02:30pm 21.3 19.0 21.3 100 0.0 SE 35 43 19 23 1017.0 1016.9 0.0
17/02:00pm 21.0 19.1 21.0 100 0.0 SSE 32 41 17 22 1017.1 1017.0 0.0
17/01:30pm 21.4 19.7 21.4 100 0.0 SE 32 41 17 22 1017.2 1017.1 0.0
17/01:00pm 21.0 19.9 21.0 100 0.0 SE 28 35 15 19 1017.4 1017.3 0.0
17/12:30pm 20.9 19.7 20.9 100 0.0 SE 28 35 15 19 1017.5 1017.4 0.0
17/12:00pm 21.4 18.5 17.1 76 2.6 SE 28 35 15 19 1017.6 1017.5 0.0
17/11:30am 20.4 15.2 8.8 47 6.1 SE 26 35 14 19 1017.8 1017.7 0.0
17/11:00am 19.9 15.0 8.6 48 5.9 SE 24 33 13 18 1017.9 1017.8 0.0
17/10:30am 19.9 14.1 7.8 45 6.2 SE 28 33 15 18 1018.0 1017.9 0.0
17/10:00am 19.5 13.6 7.5 45 6.1 SE 28 35 15 19 1018.1 1018.0 0.0
17/09:30am 18.9 13.4 7.7 48 5.7 SE 26 33 14 18 1018.1 1018.0 0.0
17/09:00am 18.7 13.3 7.9 49 5.5 SE 26 33 14 18 1018.1 1018.0 0.0
17/08:30am 18.0 12.4 8.7 54 4.8 SE 28 35 15 19 1018.2 1018.1 0.0
17/08:00am 17.6 12.8 8.7 56 4.6 SE 24 30 13 16 1018.2 1018.1 0.0
17/07:30am 18.4 13.4 6.5 45 5.9 SE 22 28 12 15 1018.1 1018.0 0.0
17/07:00am 17.7 12.7 6.6 48 5.5 SE 22 30 12 16 1017.9 1017.8 0.0
17/06:30am 17.1 11.6 6.0 48 5.4 SE 24 33 13 18 1017.6 1017.5 0.0
17/06:00am 17.1 11.9 7.3 52 4.9 SE 24 30 13 16 1017.5 1017.4 0.0
17/05:30am 16.6 10.8 6.1 50 5.1 SSE 26 32 14 17 1017.3 1017.2 0.0
17/05:00am 16.8 10.4 6.9 52 4.9 SSE 30 39 16 21 1017.0 1016.9 0.0
17/04:30am 16.8 10.6 7.9 55 4.5 SSE 30 37 16 20 1016.8 1016.7 0.0
17/04:00am 16.6 11.2 7.9 56 4.4 SSE 26 33 14 18 1016.3 1016.2 0.0
17/03:30am 16.5 11.4 7.7 56 4.4 SE 24 32 13 17 1016.1 1016.0 0.0
17/03:00am 16.4 10.3 6.6 52 4.8 SSE 28 33 15 18 1016.0 1015.9 0.0
17/02:30am 16.5 10.8 6.8 52 4.8 SSE 26 33 14 18 1015.8 1015.7 0.0
17/02:00am 16.5 11.5 6.5 51 4.9 SSE 22 30 12 16 1015.9 1015.8 0.0
17/01:30am 16.7 11.3 7.8 55 4.5 S 26 33 14 18 1015.9 1015.8 0.0
17/01:00am 16.9 10.9 8.7 58 4.2 SSE 30 37 16 20 1015.8 1015.7 0.0
17/12:30am 16.9 11.5 9.4 61 3.9 SSE 28 39 15 21 1015.8 1015.7 0.0
17/12:00am 17.1 11.6 10.5 65 3.5 SSE 30 35 16 19 1015.8 1015.7 0.0
 
Date/Time
WST
Temp
°C
App
Temp
°C
Dew
Point
°C
Rel
Hum
%
Delta-T
°C
Wind Press
QNH
hPa
Press
MSL
hPa
Rain since
9am
mm
Dir  Spd
km/h
Gust
km/h
Spd
kts
Gust
kts
16/11:30pm 16.7 11.1 8.7 59 4.1 SSE 28 35 15 19 1015.8 1015.7 0.0
16/11:00pm 16.8 11.1 8.4 57 4.3 SSE 28 39 15 21 1015.9 1015.8 0.0
16/10:30pm 16.9 10.6 7.3 53 4.8 SSE 30 37 16 20 1015.9 1015.8 0.0
16/10:00pm 16.9 11.0 7.5 54 4.7 SSE 28 37 15 20 1015.9 1015.8 0.0
16/09:30pm 16.9 10.7 7.8 55 4.6 SSE 30 37 16 20 1015.9 1015.8 0.0
16/09:00pm 17.0 11.4 8.8 58 4.2 SSE 28 37 15 20 1015.5 1015.4 0.0
16/08:30pm 17.0 11.7 8.4 57 4.4 SSE 26 35 14 19 1015.5 1015.4 0.0
16/08:00pm 17.3 12.0 9.7 61 4.0 SSE 28 33 15 18 1015.1 1015.0 0.0
16/07:30pm 17.3 12.6 9.2 59 4.2 SSE 24 32 13 17 1014.9 1014.8 0.0
16/07:00pm 17.7 13.2 10.2 61 4.0 SSE 24 35 13 19 1014.5 1014.4 0.0
16/06:30pm 18.0 13.3 9.4 57 4.5 SSE 24 33 13 18 1014.3 1014.2 0.0
16/06:00pm 18.4 13.5 9.9 57 4.5 S 26 33 14 18 1014.1 1014.0 0.0
16/05:30pm 18.9 14.2 9.2 53 5.1 S 24 32 13 17 1013.9 1013.8 0.0
16/05:00pm 20.4 16.1 10.7 53 5.3 SSE 24 32 13 17 1013.9 1013.8 0.0
16/04:30pm 20.8 16.3 10.1 50 5.8 S 24 33 13 18 1013.8 1013.7 0.0
16/04:00pm 19.8 15.5 10.6 55 5.0 SSE 24 32 13 17 1013.7 1013.6 0.0
16/03:30pm 20.7 15.9 10.2 51 5.7 S 26 35 14 19 1013.7 1013.6 0.0
16/03:00pm 21.2 16.4 8.7 44 6.6 S 24 32 13 17 1013.7 1013.6 0.0
16/02:30pm 21.8 17.2 9.5 45 6.6 S 24 32 13 17 1013.8 1013.7 0.0
16/02:00pm 21.5 16.9 9.8 47 6.3 S 24 32 13 17 1013.9 1013.8 0.0
16/01:30pm 22.1 17.3 9.0 43 7.0 S 24 32 13 17 1013.8 1013.7 0.0
16/01:00pm 21.7 17.4 9.4 45 6.6 S 22 30 12 16 1013.9 1013.8 0.0
16/12:30pm 21.8 17.7 10.2 47 6.3 S 22 30 12 16 1013.8 1013.7 0.0
16/12:00pm 21.7 17.7 10.3 48 6.2 S 22 30 12 16 1013.8 1013.7 0.0
16/11:30am 22.5 18.2 9.5 43 7.0 S 22 30 12 16 1013.6 1013.5 0.0
16/11:00am 21.5 17.1 8.9 44 6.7 SSW 22 30 12 16 1013.6 1013.5 0.0
16/10:30am 21.3 16.9 8.8 44 6.6 S 22 30 12 16 1013.5 1013.4 0.0
16/10:00am 20.5 16.1 10.3 52 5.5 SSW 24 32 13 17 1013.3 1013.2 0.0
16/09:30am 20.2 16.1 10.0 52 5.5 SSW 22 33 12 18 1013.1 1013.0 0.0
16/09:00am 19.6 14.8 10.3 55 5.0 SSW 26 33 14 18 1013.0 1012.9 0.0
16/08:30am 19.5 15.4 11.5 60 4.4 SSW 24 32 13 17 1012.9 1012.8 0.0
16/08:00am 19.8 16.7 12.3 62 4.2 SSW 20 28 11 15 1012.8 1012.7 0.0
16/07:30am 18.6 15.1 12.1 66 3.6 SSW 22 32 12 17 1012.5 1012.4 0.0
16/07:00am 18.1 14.1 11.9 67 3.4 SSW 24 33 13 18 1012.1 1012.0 0.0
16/06:30am 18.0 13.4 12.2 69 3.2 SSW 28 35 15 19 1011.6 1011.5 0.0
16/06:00am 17.6 13.7 13.3 76 2.4 SSW 26 35 14 19 1011.4 1011.3 0.0
16/05:30am 17.4 13.3 13.7 79 2.1 SSW 28 35 15 19 1011.1 1011.0 0.0
16/05:00am 17.7 15.0 13.6 77 2.3 S 20 24 11 13 1010.7 1010.6 0.0
16/04:30am 17.7 15.0 13.5 76 2.4 S 20 26 11 14 1010.6 1010.5 0.0
16/04:00am 17.5 14.6 13.0 75 2.5 S 20 24 11 13 1010.5 1010.4 0.0
16/03:30am 17.5 14.2 12.7 73 2.7 S 22 28 12 15 1010.4 1010.3 0.0
16/03:00am 17.7 13.9 12.5 71 2.9 S 24 30 13 16 1010.4 1010.3 0.0
16/02:30am 17.7 13.8 12.1 69 3.1 S 24 30 13 16 1010.3 1010.2 0.0
16/02:00am 17.6 13.7 12.0 69 3.1 S 24 30 13 16 1010.4 1010.3 0.0
16/01:30am 17.8 14.4 12.4 70 3.0 SSW 22 30 12 16 1010.4 1010.3 0.0
16/01:00am 17.8 14.2 12.0 69 3.2 S 22 28 12 15 1010.4 1010.3 0.0
16/12:30am 18.0 14.8 13.0 72 2.8 SSW 22 30 12 16 1010.4 1010.3 0.0
16/12:00am 18.2 14.7 12.1 67 3.4 SSW 22 26 12 14 1010.4 1010.3 0.0
 
Date/Time
WST
Temp
°C
App
Temp
°C
Dew
Point
°C
Rel
Hum
%
Delta-T
°C
Wind Press
QNH
hPa
Press
MSL
hPa
Rain since
9am
mm
Dir  Spd
km/h
Gust
km/h
Spd
kts
Gust
kts
15/11:30pm 18.2 15.7 13.6 74 2.6 SSW 19 24 10 13 1010.4 1010.3 0.0
15/11:00pm 18.5 16.3 14.9 79 2.1 SSW 20 26 11 14 1010.4 1010.3 0.0
15/10:30pm 19.0 18.6 16.2 84 1.7 SSW 13 17 7 9 1010.3 1010.2 0.0
15/10:00pm 18.9 17.9 15.7 82 1.9 SSW 15 19 8 10 1010.5 1010.4 0.0
15/09:30pm 18.9 17.4 15.3 79 2.1 SSW 17 22 9 12 1010.6 1010.5 0.0
15/09:00pm 19.5 17.8 15.8 79 2.2 SSW 19 24 10 13 1010.5 1010.4 0.0
15/08:30pm 19.3 18.5 16.1 82 1.9 SSW 15 20 8 11 1010.4 1010.3 0.0
15/08:00pm 19.4 18.4 15.7 79 2.2 S 15 19 8 10 1010.3 1010.2 0.0
15/07:30pm 19.4 18.3 15.3 77 2.4 S 15 19 8 10 1010.2 1010.1 0.0
15/07:00pm 19.7 18.5 15.1 75 2.7 S 15 20 8 11 1010.1 1010.0 0.0
15/06:30pm 20.5 19.3 15.1 71 3.2 S 15 20 8 11 1010.0 1009.9 0.0
15/06:00pm 21.2 19.2 14.9 67 3.7 SSW 19 22 10 12 1010.1 1010.0 0.0
15/05:30pm 21.3 19.0 14.7 66 3.9 SSW 20 26 11 14 1010.2 1010.1 0.0
15/05:00pm 21.5 18.2 14.1 62 4.3 SSW 24 30 13 16 1010.1 1010.0 0.0
15/04:30pm 22.0 19.0 13.7 59 4.8 SSW 22 30 12 16 1010.3 1010.2 0.0
15/04:00pm 21.8 18.9 12.9 57 5.1 SSW 20 28 11 15 1010.3 1010.2 0.0
15/03:30pm 22.1 19.4 13.0 56 5.2 SSW 19 24 10 13 1010.2 1010.1 0.0
15/03:00pm 22.6 20.0 13.7 57 5.2 SSW 20 26 11 14 1010.1 1010.0 0.0
15/02:30pm 21.9 19.7 13.4 58 4.9 SSW 17 24 9 13 1010.3 1010.2 0.0
15/02:00pm 22.0 19.9 13.5 58 4.9 SSW 17 20 9 11 1010.5 1010.4 0.0
15/01:30pm 22.5 20.3 13.3 56 5.3 SSW 17 20 9 11 1010.5 1010.4 0.0
15/01:00pm 21.5 19.3 13.3 59 4.7 S 17 20 9 11 1010.6 1010.5 0.0
15/12:30pm 21.9 19.9 13.8 60 4.7 SSW 17 20 9 11 1010.6 1010.5 0.0
15/12:00pm 21.7 20.1 14.0 61 4.5 S 15 20 8 11 1010.8 1010.7 0.0
15/11:30am 21.7 20.2 14.2 62 4.4 S 15 20 8 11 1010.9 1010.8 0.0
15/11:00am 21.4 20.0 14.4 64 4.1 S 15 24 8 13 1011.0 1010.9 0.0
15/10:30am 20.7 19.2 14.2 66 3.8 SSE 15 19 8 10 1011.0 1010.9 0.0
15/10:00am 20.6 19.2 14.4 67 3.6 S 15 20 8 11 1011.0 1010.9 0.0
15/09:30am 20.3 18.5 14.5 69 3.4 SSE 17 24 9 13 1011.2 1011.1 0.0
15/09:00am 19.8 18.1 14.7 72 3.0 SSE 17 20 9 11 1011.2 1011.1 0.0
15/08:30am 19.1 17.6 14.3 73 2.8 S 15 20 8 11 1011.5 1011.4 0.0
15/08:00am 19.0 17.2 14.5 75 2.6 SSE 17 24 9 13 1011.7 1011.6 0.0
15/07:30am 18.6 16.9 14.6 77 2.3 SSE 17 22 9 12 1011.7 1011.6 0.0
15/07:00am 18.4 16.8 15.0 80 2.0 SSE 17 24 9 13 1011.8 1011.7 0.0
15/06:30am 18.0 15.9 14.7 81 1.9 SSE 19 24 10 13 1011.7 1011.6 0.0
15/06:00am 17.9 16.2 14.8 82 1.8 S 17 22 9 12 1011.5 1011.4 0.0
15/05:30am 17.8 15.7 14.7 82 1.8 S 19 24 10 13 1011.5 1011.4 0.0
15/05:00am 18.0 16.1 15.3 84 1.6 S 19 24 10 13 1011.3 1011.2 0.0
15/04:30am 17.8 15.9 15.2 85 1.5 SSE 19 26 10 14 1011.1 1011.0 0.0
15/04:00am 17.8 16.0 15.4 86 1.4 SSE 19 26 10 14 1011.1 1011.0 0.0
15/03:30am 18.0 16.7 15.8 87 1.3 S 17 24 9 13 1011.1 1011.0 0.0
15/03:00am 17.9 16.6 15.9 88 1.2 SSE 17 24 9 13 1011.3 1011.2 0.0
15/02:30am 18.1 16.9 16.1 88 1.2 SSE 17 22 9 12 1011.6 1011.5 0.0
15/02:00am 18.3 17.3 16.6 90 1.0 SSE 17 22 9 12 1011.7 1011.6 0.0
15/01:30am 18.3 17.3 16.6 90 1.0 SSE 17 24 9 13 1012.1 1012.0 0.0
15/01:00am 18.4 17.1 16.7 90 1.0 SE 19 24 10 13 1012.3 1012.2 0.0
15/12:30am 18.5 17.0 16.8 90 1.0 SSE 20 24 11 13 1012.6 1012.5 0.0
15/12:00am 18.5 17.0 16.8 90 1.0 SSE 20 24 11 13 1012.7 1012.6 0.0
 
Date/Time
WST
Temp
°C
App
Temp
°C
Dew
Point
°C
Rel
Hum
%
Delta-T
°C
Wind Press
QNH
hPa
Press
MSL
hPa
Rain since
9am
mm
Dir  Spd
km/h
Gust
km/h
Spd
kts
Gust
kts
14/11:30pm 18.5 17.0 16.7 89 1.1 SSE 20 26 11 14 1012.8 1012.7 0.0

Other Formats:

Comma delimited format used in spreadsheet applications
http://www.bom.gov.au/fwo/IDW60801/IDW60801.94601.axf

JavaScript Object Notation format (JSON) in row-major order
http://www.bom.gov.au/fwo/IDW60801/IDW60801.94601.json